createdAt,value
2019-03-17T00:00:48.310Z,57.76
2019-03-17T00:03:19.917Z,57.75
2019-03-17T00:05:52.101Z,57.77
2019-03-17T00:08:23.708Z,57.90
2019-03-17T00:10:55.327Z,57.90
2019-03-17T00:13:26.942Z,57.85
2019-03-17T00:15:58.572Z,57.91
2019-03-17T00:18:30.249Z,57.96
2019-03-17T00:21:02.232Z,58.11
2019-03-17T00:23:33.826Z,58.20
2019-03-17T00:26:05.676Z,58.25
2019-03-17T00:28:37.348Z,58.32
2019-03-17T00:31:09.015Z,58.36
2019-03-17T00:33:40.794Z,58.40
2019-03-17T00:36:12.806Z,58.41
2019-03-17T00:38:44.420Z,58.44
2019-03-17T00:41:16.074Z,58.40
2019-03-17T00:43:47.675Z,58.37
2019-03-17T00:46:19.301Z,58.36
2019-03-17T00:48:50.995Z,58.41
2019-03-17T00:51:22.883Z,58.45
2019-03-17T00:53:54.833Z,58.54
2019-03-17T00:56:26.521Z,58.62
2019-03-17T00:58:58.154Z,58.67
2019-03-17T01:01:29.981Z,58.75
2019-03-17T01:04:01.701Z,58.79
2019-03-17T01:06:33.403Z,58.76
2019-03-17T01:09:06.567Z,58.83
2019-03-17T01:11:38.160Z,58.83
2019-03-17T01:14:10.332Z,58.80
2019-03-17T01:16:42.026Z,58.79
2019-03-17T01:19:13.679Z,58.94
2019-03-17T01:21:45.331Z,58.94
2019-03-17T01:24:17.230Z,58.96
2019-03-17T01:26:49.095Z,58.96
2019-03-17T01:29:20.750Z,58.91
2019-03-17T01:31:52.409Z,58.91
2019-03-17T01:34:24.093Z,58.90
2019-03-17T01:36:55.756Z,58.93
2019-03-17T01:39:27.356Z,59.07
2019-03-17T01:41:58.981Z,59.12
2019-03-17T01:44:30.890Z,59.17
2019-03-17T01:47:02.465Z,59.15
2019-03-17T01:49:34.108Z,59.14
2019-03-17T01:52:05.684Z,59.13
2019-03-17T01:54:37.348Z,59.17
2019-03-17T01:57:08.944Z,59.15
2019-03-17T01:59:40.997Z,59.12
2019-03-17T02:02:12.564Z,59.13
2019-03-17T02:04:44.385Z,59.22
2019-03-17T02:07:16.048Z,59.18
2019-03-17T02:09:47.668Z,59.29
2019-03-17T02:12:19.227Z,59.42
2019-03-17T02:14:51.292Z,59.51
2019-03-17T02:17:22.903Z,59.59
2019-03-17T02:19:54.539Z,59.57
2019-03-17T02:22:26.231Z,59.51
2019-03-17T02:24:57.980Z,59.36
2019-03-17T02:27:29.545Z,59.23
2019-03-17T02:30:01.301Z,59.13
2019-03-17T02:32:33.421Z,59.04
2019-03-17T02:35:05.766Z,58.95
2019-03-17T02:37:37.413Z,58.94
2019-03-17T02:40:09.024Z,59.05
2019-03-17T02:42:40.785Z,59.14
2019-03-17T02:45:12.874Z,59.27
2019-03-17T02:47:44.930Z,59.38
2019-03-17T02:50:16.535Z,59.45
2019-03-17T02:52:48.140Z,59.42
2019-03-17T02:55:19.850Z,59.30
2019-03-17T02:57:51.615Z,59.25
2019-03-17T03:00:23.220Z,59.28
2019-03-17T03:02:55.544Z,59.33
2019-03-17T03:05:27.108Z,59.36
2019-03-17T03:07:58.776Z,59.38
2019-03-17T03:10:32.018Z,59.39
2019-03-17T03:13:03.814Z,59.41
2019-03-17T03:15:35.390Z,59.42
2019-03-17T03:18:07.455Z,59.33
2019-03-17T03:20:39.075Z,59.22
2019-03-17T03:23:10.677Z,59.22
2019-03-17T03:25:42.445Z,59.21
2019-03-17T03:28:14.171Z,59.29
2019-03-17T03:30:45.721Z,59.34
2019-03-17T03:33:18.007Z,59.29
2019-03-17T03:35:49.603Z,59.24
2019-03-17T03:38:21.182Z,59.22
2019-03-17T03:40:52.912Z,59.23
2019-03-17T03:43:24.525Z,59.27
2019-03-17T03:45:56.173Z,59.26
2019-03-17T03:48:27.802Z,59.24
2019-03-17T03:51:00.081Z,59.29
2019-03-17T03:53:31.721Z,59.31
2019-03-17T03:56:03.533Z,59.39
2019-03-17T03:58:35.148Z,59.41
2019-03-17T04:01:06.835Z,59.42
2019-03-17T04:03:38.484Z,59.48
2019-03-17T04:06:25.194Z,59.48
2019-03-17T04:08:44.019Z,59.44
2019-03-17T04:11:15.645Z,59.44
2019-03-17T04:13:47.196Z,59.45
2019-03-17T04:16:18.777Z,59.48
2019-03-17T04:18:50.438Z,59.55
2019-03-17T04:21:22.843Z,59.53
2019-03-17T04:23:54.501Z,59.48
2019-03-17T04:26:26.565Z,59.44
2019-03-17T04:28:58.167Z,59.39
2019-03-17T04:31:29.799Z,59.28
2019-03-17T04:34:01.560Z,59.24
2019-03-17T04:36:40.248Z,59.26
2019-03-17T04:39:08.868Z,59.22
2019-03-17T04:41:40.465Z,59.27
2019-03-17T04:44:20.814Z,59.41
2019-03-17T04:46:45.414Z,59.50
2019-03-17T04:49:17.000Z,59.59
2019-03-17T04:51:48.786Z,59.65
2019-03-17T04:54:20.775Z,59.68
2019-03-17T04:56:52.798Z,59.71
2019-03-17T04:59:24.371Z,59.70
2019-03-17T05:01:56.058Z,59.63
2019-03-17T05:04:27.729Z,59.59
2019-03-17T05:06:59.334Z,59.55
2019-03-17T05:09:30.927Z,59.58
2019-03-17T05:12:02.933Z,59.62
2019-03-17T05:14:34.628Z,59.65
2019-03-17T05:17:06.254Z,59.62
2019-03-17T05:19:37.852Z,59.60
2019-03-17T05:22:09.509Z,59.57
2019-03-17T05:24:41.425Z,59.62
2019-03-17T05:27:13.543Z,59.69
2019-03-17T05:29:45.137Z,59.76
2019-03-17T05:32:16.767Z,59.80
2019-03-17T05:34:48.352Z,59.85
2019-03-17T05:37:19.973Z,59.82
2019-03-17T05:39:51.674Z,59.85
2019-03-17T05:42:23.249Z,59.82
2019-03-17T05:44:55.183Z,59.89
2019-03-17T05:47:26.851Z,59.91
2019-03-17T05:49:58.722Z,59.91
2019-03-17T05:52:30.310Z,59.87
2019-03-17T05:55:02.031Z,59.85
2019-03-17T05:57:33.708Z,59.88
2019-03-17T06:00:06.321Z,59.89
2019-03-17T06:02:37.914Z,59.93
2019-03-17T06:05:10.333Z,59.97
2019-03-17T06:07:41.931Z,59.99
2019-03-17T06:10:13.748Z,60.05
2019-03-17T06:12:45.698Z,60.13
2019-03-17T06:15:17.825Z,60.15
2019-03-17T06:17:49.615Z,60.17
2019-03-17T06:20:21.326Z,60.21
2019-03-17T06:22:52.906Z,60.28
2019-03-17T06:25:24.645Z,60.34
2019-03-17T06:27:56.516Z,60.37
2019-03-17T06:30:28.885Z,60.41
2019-03-17T06:33:00.657Z,60.40
2019-03-17T06:35:32.267Z,60.36
2019-03-17T06:38:03.887Z,60.33
2019-03-17T06:40:35.499Z,60.31
2019-03-17T06:43:07.351Z,60.25
2019-03-17T06:45:39.592Z,60.20
2019-03-17T06:48:11.207Z,60.11
2019-03-17T06:50:42.863Z,60.05
2019-03-17T06:53:14.641Z,59.90
2019-03-17T06:55:46.415Z,59.76
2019-03-17T06:58:18.018Z,59.58
2019-03-17T07:00:50.538Z,59.40
2019-03-17T07:03:22.161Z,59.11
2019-03-17T07:05:54.075Z,58.97
2019-03-17T07:08:25.674Z,58.69
2019-03-17T07:10:57.405Z,58.51
2019-03-17T07:13:29.048Z,58.33
2019-03-17T07:16:01.331Z,58.17
2019-03-17T07:18:32.969Z,57.93
2019-03-17T07:21:04.675Z,57.84
2019-03-17T07:23:36.318Z,57.71
2019-03-17T07:26:08.514Z,57.19
2019-03-17T07:28:40.145Z,57.03
2019-03-17T07:31:11.884Z,56.90
2019-03-17T07:33:44.110Z,56.79
2019-03-17T07:36:15.706Z,56.73
2019-03-17T07:38:47.367Z,56.63
2019-03-17T07:41:18.982Z,56.48
2019-03-17T07:43:50.601Z,56.45
2019-03-17T07:46:22.212Z,56.24
2019-03-17T07:48:54.218Z,56.19
2019-03-17T07:51:25.936Z,56.01
2019-03-17T07:53:57.587Z,55.96
2019-03-17T07:56:29.291Z,55.88
2019-03-17T07:59:00.997Z,55.41
2019-03-17T08:01:32.700Z,55.38
2019-03-17T08:04:05.157Z,55.07
2019-03-17T08:06:36.774Z,54.88
2019-03-17T08:09:09.645Z,54.91
2019-03-17T08:11:41.292Z,54.49
2019-03-17T08:14:12.940Z,54.63
2019-03-17T08:16:44.622Z,54.46
2019-03-17T08:19:16.943Z,54.63
2019-03-17T08:21:48.600Z,54.57
2019-03-17T08:24:20.210Z,54.25
2019-03-17T08:26:52.083Z,54.12
2019-03-17T08:29:23.915Z,54.01
2019-03-17T08:31:55.586Z,53.70
2019-03-17T08:34:27.892Z,53.49
2019-03-17T08:36:59.577Z,53.46
2019-03-17T08:39:31.309Z,53.41
2019-03-17T08:42:02.994Z,52.86
2019-03-17T08:44:34.846Z,53.17
2019-03-17T08:47:06.573Z,53.28
2019-03-17T08:49:38.865Z,53.26
2019-03-17T08:52:10.658Z,52.83
2019-03-17T08:54:42.327Z,52.56
2019-03-17T08:57:14.018Z,52.18
2019-03-17T08:59:45.830Z,52.65
2019-03-17T09:02:17.530Z,52.66
2019-03-17T09:04:49.453Z,52.40
2019-03-17T09:07:21.895Z,52.28
2019-03-17T09:09:53.521Z,51.92
2019-03-17T09:12:25.476Z,51.87
2019-03-17T09:14:57.192Z,51.92
2019-03-17T09:17:28.908Z,51.73
2019-03-17T09:20:00.662Z,51.86
2019-03-17T09:22:33.120Z,51.71
2019-03-17T09:25:04.977Z,51.70
2019-03-17T09:27:36.814Z,51.47
2019-03-17T09:30:10.866Z,51.26
2019-03-17T09:32:42.688Z,51.40
2019-03-17T09:35:14.467Z,51.31
2019-03-17T09:37:46.871Z,51.30
2019-03-17T09:40:18.535Z,51.34
2019-03-17T09:42:50.284Z,51.07
2019-03-17T09:45:22.069Z,51.26
2019-03-17T09:47:53.730Z,51.14
2019-03-17T09:50:25.419Z,51.19
2019-03-17T09:52:57.869Z,51.00
2019-03-17T09:55:29.505Z,50.80
2019-03-17T09:58:01.177Z,50.63
2019-03-17T10:00:32.902Z,50.78
2019-03-17T10:03:04.557Z,50.44
2019-03-17T10:05:36.247Z,50.65
2019-03-17T10:08:08.391Z,50.33
2019-03-17T10:10:40.118Z,50.06
2019-03-17T10:13:11.855Z,49.80
2019-03-17T10:15:43.518Z,49.99
2019-03-17T10:18:15.501Z,49.77
2019-03-17T10:20:47.178Z,49.65
2019-03-17T10:23:19.559Z,49.53
2019-03-17T10:25:50.450Z,49.67
2019-03-17T10:28:19.718Z,49.54
2019-03-17T10:30:51.482Z,49.73
2019-03-17T10:33:23.400Z,49.92
2019-03-17T10:35:55.068Z,49.72
2019-03-17T10:38:26.839Z,49.72
2019-03-17T10:40:59.006Z,49.38
2019-03-17T10:43:30.659Z,49.60
2019-03-17T10:46:02.337Z,49.20
2019-03-17T10:48:34.062Z,48.92
2019-03-17T10:51:05.791Z,48.89
2019-03-17T10:53:37.455Z,49.19
2019-03-17T10:56:09.760Z,49.20
2019-03-17T10:58:41.463Z,49.28
2019-03-17T11:01:13.206Z,49.21
2019-03-17T11:03:45.270Z,49.20
2019-03-17T11:06:17.068Z,48.92
2019-03-17T11:08:48.785Z,49.02
2019-03-17T11:11:21.114Z,49.00
2019-03-17T11:13:52.773Z,48.49
2019-03-17T11:16:24.455Z,48.72
2019-03-17T11:18:56.319Z,48.81
2019-03-17T11:21:28.216Z,48.83
2019-03-17T11:23:59.893Z,48.75
2019-03-17T11:26:32.545Z,48.72
2019-03-17T11:29:04.240Z,48.20
2019-03-17T11:31:35.936Z,48.17
2019-03-17T11:34:07.615Z,47.91
2019-03-17T11:36:39.404Z,47.92
2019-03-17T11:39:11.070Z,48.04
2019-03-17T11:41:43.455Z,48.01
2019-03-17T11:44:15.198Z,48.20
2019-03-17T11:46:46.925Z,47.83
2019-03-17T11:49:18.660Z,47.71
2019-03-17T11:51:50.345Z,47.76
2019-03-17T11:54:22.394Z,48.01
2019-03-17T11:56:55.081Z,47.95
2019-03-17T11:59:27.052Z,48.08
2019-03-17T12:01:59.159Z,48.04
2019-03-17T12:04:32.345Z,48.18
2019-03-17T12:07:04.063Z,47.32
2019-03-17T12:09:35.917Z,48.19
2019-03-17T12:12:07.785Z,48.52
2019-03-17T12:14:40.186Z,48.63
2019-03-17T12:17:11.948Z,48.91
2019-03-17T12:19:43.644Z,49.35
2019-03-17T12:22:15.272Z,49.56
2019-03-17T12:24:47.518Z,49.92
2019-03-17T12:27:19.614Z,50.28
2019-03-17T12:29:54.846Z,50.69
2019-03-17T12:32:26.794Z,51.04
2019-03-17T12:34:58.664Z,51.37
2019-03-17T12:37:30.353Z,51.67
2019-03-17T12:40:03.039Z,52.04
2019-03-17T12:42:35.964Z,52.15
2019-03-17T12:45:09.383Z,52.43
2019-03-17T12:47:41.069Z,52.74
2019-03-17T12:50:14.024Z,52.67
2019-03-17T12:52:45.984Z,52.69
2019-03-17T12:55:17.672Z,52.34
2019-03-17T12:57:49.419Z,52.06
2019-03-17T13:00:22.766Z,52.17
2019-03-17T13:02:55.093Z,52.37
2019-03-17T13:05:26.829Z,52.80
2019-03-17T13:07:58.700Z,53.01
2019-03-17T13:10:30.576Z,53.14
2019-03-17T13:13:02.310Z,53.06
2019-03-17T13:15:34.717Z,53.07
2019-03-17T13:18:06.473Z,53.15
2019-03-17T13:20:38.716Z,53.28
2019-03-17T13:23:10.400Z,53.36
2019-03-17T13:25:42.641Z,53.40
2019-03-17T13:28:14.390Z,53.48
2019-03-17T13:30:46.631Z,53.49
2019-03-17T13:33:18.324Z,53.43
2019-03-17T13:35:50.350Z,53.55
2019-03-17T13:38:22.143Z,53.63
2019-03-17T13:40:54.557Z,53.75
2019-03-17T13:43:26.307Z,53.77
2019-03-17T13:45:58.604Z,53.90
2019-03-17T13:48:30.369Z,54.04
2019-03-17T13:51:02.145Z,53.98
2019-03-17T13:53:34.021Z,53.92
2019-03-17T13:56:05.784Z,53.93
2019-03-17T13:58:37.569Z,53.87
2019-03-17T14:01:09.215Z,53.88
2019-03-17T14:03:41.517Z,53.85
2019-03-17T14:06:13.251Z,53.83
2019-03-17T14:08:46.337Z,53.84
2019-03-17T14:11:18.333Z,53.88
2019-03-17T14:13:50.350Z,53.91
2019-03-17T14:16:22.051Z,53.99
2019-03-17T14:18:54.519Z,53.94
2019-03-17T14:21:26.261Z,53.88
2019-03-17T14:23:58.040Z,53.86
2019-03-17T14:26:29.035Z,53.84
2019-03-17T14:28:58.296Z,53.84
2019-03-17T14:31:29.997Z,53.74
2019-03-17T14:34:02.492Z,53.69
2019-03-17T14:36:34.201Z,53.59
2019-03-17T14:39:07.298Z,53.57
2019-03-17T14:41:39.155Z,53.57
2019-03-17T14:44:10.884Z,53.50
2019-03-17T14:46:42.657Z,53.53
2019-03-17T14:49:15.211Z,53.46
2019-03-17T14:51:46.996Z,53.38
2019-03-17T14:54:18.894Z,53.45
2019-03-17T14:56:50.692Z,53.54
2019-03-17T14:59:22.396Z,53.56
2019-03-17T15:01:54.266Z,53.60
2019-03-17T15:04:26.734Z,53.60
2019-03-17T15:06:58.443Z,53.61
2019-03-17T15:09:30.251Z,53.60
2019-03-17T15:12:01.972Z,53.71
2019-03-17T15:14:33.905Z,53.82
2019-03-17T15:17:05.663Z,53.85
2019-03-17T15:19:38.228Z,53.85
2019-03-17T15:22:09.876Z,53.82
2019-03-17T15:24:41.590Z,53.81
2019-03-17T15:27:13.742Z,53.82
2019-03-17T15:29:45.635Z,53.83
2019-03-17T15:32:17.599Z,53.88
2019-03-17T15:34:49.726Z,53.94
2019-03-17T15:37:21.858Z,53.95
2019-03-17T15:39:53.671Z,53.94
2019-03-17T15:42:25.838Z,53.97
2019-03-17T15:44:57.569Z,54.00
2019-03-17T15:47:29.306Z,54.04
2019-03-17T15:50:01.427Z,54.10
2019-03-17T15:52:33.560Z,54.19
2019-03-17T15:55:05.888Z,54.23
2019-03-17T15:57:37.741Z,54.28
2019-03-17T16:00:24.838Z,54.36
2019-03-17T16:02:49.936Z,54.38
2019-03-17T16:05:21.789Z,54.45
2019-03-17T16:07:53.961Z,54.53
2019-03-17T16:10:26.033Z,54.72
2019-03-17T16:12:57.837Z,54.81
2019-03-17T16:15:29.509Z,55.09
2019-03-17T16:18:01.265Z,55.17
2019-03-17T16:20:33.463Z,55.25
2019-03-17T16:23:05.747Z,55.37
2019-03-17T16:25:37.741Z,55.46
2019-03-17T16:28:09.655Z,55.59
2019-03-17T16:30:41.609Z,55.68
2019-03-17T16:33:13.478Z,55.79
2019-03-17T16:35:46.358Z,55.90
2019-03-17T16:38:19.015Z,55.99
2019-03-17T16:40:50.992Z,56.05
2019-03-17T16:43:22.824Z,56.13
2019-03-17T16:45:54.589Z,56.16
2019-03-17T16:48:26.316Z,56.18
2019-03-17T16:50:58.033Z,56.18
2019-03-17T16:53:30.443Z,56.14
2019-03-17T16:56:02.167Z,56.18
2019-03-17T16:58:34.013Z,56.17
2019-03-17T17:01:06.055Z,56.17
2019-03-17T17:03:37.911Z,56.14
2019-03-17T17:06:09.829Z,56.19
2019-03-17T17:08:42.351Z,56.08
2019-03-17T17:11:14.170Z,56.03
2019-03-17T17:13:45.915Z,56.02
2019-03-17T17:16:17.798Z,56.07
2019-03-17T17:18:49.688Z,56.10
2019-03-17T17:21:21.549Z,56.08
2019-03-17T17:23:54.134Z,56.15
2019-03-17T17:26:36.563Z,56.18
2019-03-17T17:28:56.397Z,56.20
2019-03-17T17:31:30.205Z,56.23
2019-03-17T17:34:02.266Z,56.29
2019-03-17T17:36:34.359Z,56.21
2019-03-17T17:39:09.571Z,56.24
2019-03-17T17:41:41.915Z,56.21
2019-03-17T17:44:13.777Z,56.30
2019-03-17T17:46:46.056Z,56.31
2019-03-17T17:49:18.195Z,56.32
2019-03-17T17:51:50.156Z,56.30
2019-03-17T17:54:22.205Z,56.37
2019-03-17T17:56:54.143Z,56.39
2019-03-17T17:59:26.013Z,56.43
2019-03-17T18:01:58.542Z,56.45
2019-03-17T18:04:30.403Z,56.48
2019-03-17T18:07:02.352Z,56.52
2019-03-17T18:09:34.302Z,56.50
2019-03-17T18:12:06.223Z,56.60
2019-03-17T18:14:38.204Z,56.77
2019-03-17T18:17:10.790Z,56.89
2019-03-17T18:19:42.660Z,57.06
2019-03-17T18:22:14.523Z,57.18
2019-03-17T18:24:46.344Z,57.40
2019-03-17T18:27:18.423Z,57.52
2019-03-17T18:29:50.410Z,57.57
2019-03-17T18:32:22.911Z,57.69
2019-03-17T18:34:55.332Z,57.95
2019-03-17T18:37:27.131Z,57.85
2019-03-17T18:39:59.081Z,57.91
2019-03-17T18:42:33.252Z,57.92
2019-03-17T18:45:04.943Z,57.94
2019-03-17T18:47:37.530Z,57.84
2019-03-17T18:50:19.494Z,57.81
2019-03-17T18:52:43.887Z,57.74
2019-03-17T18:55:15.935Z,57.63
2019-03-17T18:57:48.099Z,57.52
2019-03-17T19:00:19.949Z,57.44
2019-03-17T19:02:52.568Z,57.37
2019-03-17T19:05:24.471Z,57.29
2019-03-17T19:07:56.433Z,57.22
2019-03-17T19:10:28.457Z,57.19
2019-03-17T19:13:00.371Z,57.17
2019-03-17T19:15:32.220Z,57.13
2019-03-17T19:18:04.119Z,57.04
2019-03-17T19:20:36.339Z,56.96
2019-03-17T19:23:08.156Z,56.88
2019-03-17T19:25:39.933Z,56.80
2019-03-17T19:28:12.113Z,56.65
2019-03-17T19:30:44.147Z,56.58
2019-03-17T19:33:16.028Z,56.55
2019-03-17T19:35:48.570Z,56.50
2019-03-17T19:38:20.576Z,56.45
2019-03-17T19:40:52.420Z,56.40
2019-03-17T19:43:24.480Z,56.37
2019-03-17T19:45:56.340Z,56.30
2019-03-17T19:48:28.032Z,56.18
2019-03-17T19:51:00.889Z,56.11
2019-03-17T19:53:32.601Z,56.07
2019-03-17T19:56:04.670Z,56.06
2019-03-17T19:58:36.431Z,56.10
2019-03-17T20:01:08.421Z,56.11
2019-03-17T20:03:40.412Z,56.11
2019-03-17T20:06:12.983Z,56.13
2019-03-17T20:08:44.944Z,56.17
2019-03-17T20:11:16.783Z,56.17
2019-03-17T20:13:48.787Z,56.22
2019-03-17T20:16:20.664Z,56.28
2019-03-17T20:18:52.771Z,56.31
2019-03-17T20:21:25.310Z,56.32
2019-03-17T20:23:57.069Z,56.31
2019-03-17T20:26:28.784Z,56.34
2019-03-17T20:29:00.785Z,56.38
2019-03-17T20:31:32.815Z,56.41
2019-03-17T20:34:04.548Z,56.43
2019-03-17T20:36:36.419Z,56.51
2019-03-17T20:39:09.571Z,56.51
2019-03-17T20:41:41.298Z,56.54
2019-03-17T20:44:13.232Z,56.63
2019-03-17T20:46:45.433Z,56.63
2019-03-17T20:49:17.564Z,56.67
2019-03-17T20:51:49.509Z,56.68
2019-03-17T20:54:22.157Z,56.66
2019-03-17T20:56:54.183Z,56.61
2019-03-17T20:59:26.379Z,56.58
2019-03-17T21:01:58.275Z,56.55
2019-03-17T21:04:30.413Z,56.56
2019-03-17T21:07:02.500Z,56.60
2019-03-17T21:09:35.309Z,56.60
2019-03-17T21:12:07.123Z,56.60
2019-03-17T21:14:38.952Z,56.59
2019-03-17T21:17:10.722Z,56.64
2019-03-17T21:19:42.764Z,56.71
2019-03-17T21:22:14.529Z,56.75
2019-03-17T21:24:47.001Z,56.79
2019-03-17T21:27:18.880Z,56.79
2019-03-17T21:29:50.652Z,56.78
2019-03-17T21:32:22.409Z,56.73
2019-03-17T21:34:54.289Z,56.74
2019-03-17T21:37:26.196Z,56.73
2019-03-17T21:39:58.551Z,56.77
2019-03-17T21:42:30.348Z,56.81
2019-03-17T21:45:02.081Z,56.86
2019-03-17T21:47:33.766Z,56.90
2019-03-17T21:50:06.948Z,56.95
2019-03-17T21:52:38.586Z,57.03
2019-03-17T21:55:11.222Z,57.08
2019-03-17T21:57:43.041Z,57.07
2019-03-17T22:00:16.207Z,57.08
2019-03-17T22:02:47.924Z,57.13
2019-03-17T22:05:19.736Z,57.16
2019-03-17T22:07:51.764Z,57.17
2019-03-17T22:10:24.123Z,57.18
2019-03-17T22:12:55.974Z,57.20
2019-03-17T22:15:27.737Z,57.21
2019-03-17T22:17:59.439Z,57.24
2019-03-17T22:20:31.266Z,57.30
2019-03-17T22:23:03.038Z,57.32
2019-03-17T22:25:34.768Z,57.36
2019-03-17T22:28:08.625Z,57.38
2019-03-17T22:30:40.566Z,57.41
2019-03-17T22:33:12.771Z,57.41
2019-03-17T22:35:44.541Z,57.47
2019-03-17T22:38:16.354Z,57.47
2019-03-17T22:40:48.050Z,57.51
2019-03-17T22:43:20.411Z,57.57
2019-03-17T22:45:52.159Z,57.58
2019-03-17T22:48:23.819Z,57.58
2019-03-17T22:50:55.586Z,57.58
2019-03-17T22:53:27.300Z,57.59
2019-03-17T22:55:58.998Z,57.60
2019-03-17T22:58:31.446Z,57.55
2019-03-17T23:01:03.324Z,57.55
2019-03-17T23:03:34.945Z,57.55
2019-03-17T23:06:06.678Z,57.50
2019-03-17T23:08:38.332Z,57.42
2019-03-17T23:11:10.006Z,57.37
2019-03-17T23:13:42.368Z,57.33
2019-03-17T23:16:14.011Z,57.32
2019-03-17T23:18:46.688Z,57.27
2019-03-17T23:21:18.363Z,57.26
2019-03-17T23:23:50.011Z,57.25
2019-03-17T23:26:21.631Z,57.21
2019-03-17T23:28:54.166Z,57.14
2019-03-17T23:31:25.813Z,57.06
2019-03-17T23:33:57.445Z,56.99
2019-03-17T23:36:29.072Z,56.92
2019-03-17T23:39:00.811Z,56.84
2019-03-17T23:41:32.416Z,56.79
2019-03-17T23:44:04.674Z,56.74
2019-03-17T23:46:36.284Z,56.71
2019-03-17T23:49:07.940Z,56.71
2019-03-17T23:51:39.551Z,56.67
2019-03-17T23:54:11.157Z,56.65
2019-03-17T23:56:42.769Z,56.66
2019-03-17T23:59:14.389Z,56.70
